EDT,Max TemperatureF,Mean TemperatureF,Min TemperatureF,Max Dew PointF,MeanDew PointF,Min DewpointF,Max Humidity, Mean Humidity, Min Humidity, Max Sea Level PressureIn, Mean Sea Level PressureIn, Min Sea Level PressureIn, Max VisibilityMiles, Mean VisibilityMiles, Min VisibilityMiles, Max Wind SpeedMPH, Mean Wind SpeedMPH, Max Gust SpeedMPH,PrecipitationIn, CloudCover, Events, WindDirDegrees
2011-10-1,63,56,50,61,54,43,94,87,74,29.80,29.68,29.61,10,8,2,15,5,18,0.25,8,Rain,355
2011-10-2,66,56,48,57,53,44,100,88,73,29.92,29.85,29.79,10,8,0,14,8,22,0.19,8,Fog-Rain,8
2011-10-3,62,56,51,54,51,44,100,88,56,30.08,29.99,29.91,10,7,0,7,1,,0.07,7,Fog-Rain,182
2011-10-4,61,56,51,55,52,50,100,89,72,30.04,29.98,29.95,10,9,2,13,5,18,0.56,8,Rain,358
2011-10-5,69,54,37,49,41,26,89,61,26,30.28,30.06,29.96,10,10,10,25,9,38,0.00,2,,338
2011-10-6,66,48,33,41,32,16,93,66,16,30.37,30.30,30.25,10,10,10,17,2,28,0.00,0,,1
2011-10-7,64,50,35,44,37,28,100,74,29,30.49,30.43,30.38,10,10,9,6,2,,0.00,1,,95
2011-10-8,78,60,42,61,50,39,97,79,43,30.48,30.42,30.36,10,10,2,6,1,,0.00,0,,163
2011-10-9,84,64,44,57,48,43,100,82,27,30.40,30.36,30.25,10,6,0,13,1,,0.01,1,Fog,296
2011-10-10,84,68,51,59,54,52,100,71,33,30.25,30.19,30.12,10,8,1,13,3,,0.00,0,,322
2011-10-11,72,62,53,56,51,39,100,79,31,30.26,30.20,30.17,10,7,1,6,1,,0.00,0,,15
2011-10-12,62,56,50,52,48,44,94,80,54,30.24,30.15,30.04,10,9,3,9,5,,0.11,4,Rain,21
2011-10-13,62,57,53,58,55,51,100,92,82,30.02,29.87,29.77,10,6,2,14,8,17,0.44,8,Rain,10
2011-10-14,70,64,57,66,61,50,100,91,68,29.76,29.52,29.32,10,5,1,22,5,33,1.60,8,Rain-Thunderstorm,5
2011-10-15,63,57,51,51,41,35,81,58,41,29.68,29.56,29.42,10,10,10,23,11,33,0.00,4,Rain,215
2011-10-16,64,56,48,45,39,34,74,52,38,29.81,29.73,29.62,10,10,10,14,9,22,0.00,5,Rain,209
2011-10-17,64,54,44,48,38,31,89,56,30,29.74,29.68,29.59,10,10,10,13,7,22,0.00,2,Rain,222
2011-10-18,66,54,41,45,39,34,93,66,30,29.93,29.85,29.74,10,10,10,8,2,,0.00,3,,208
2011-10-19,55,50,46,53,49,42,97,89,76,29.95,29.78,29.58,10,6,2,13,7,,0.87,7,Rain,8
2011-10-20,70,60,50,61,51,41,100,79,47,29.66,29.50,29.40,10,7,2,23,10,33,0.28,6,Rain,281
2011-10-21,62,52,45,43,40,38,82,63,46,29.97,29.83,29.67,10,10,10,14,8,18,0.00,4,,214
2011-10-22,59,49,41,44,40,36,89,69,47,30.10,30.03,29.97,10,10,10,14,4,,0.00,6,,292
2011-10-23,55,45,35,41,37,34,97,81,47,30.17,30.13,30.10,10,9,2,5,0,,0.00,4,,142
2011-10-24,59,45,33,48,37,32,100,89,67,30.16,30.09,29.95,10,5,0,9,1,,0.03,4,Fog-Rain,173
2011-10-25,59,46,35,47,38,31,100,82,37,30.04,29.95,29.92,10,4,0,23,3,33,0.01,2,Fog,293
2011-10-26,51,46,42,43,41,34,93,81,68,30.04,29.89,29.77,10,10,10,8,4,,0.02,8,Rain,350
2011-10-27,46,40,33,43,37,32,93,90,83,29.93,29.75,29.68,10,6,2,15,9,17,0.70,8,Rain-Snow,7
2011-10-28,46,37,28,32,28,25,96,73,46,30.28,30.17,29.96,10,10,7,14,5,21,0.01,0,Snow,315
2011-10-29,37,35,33,31,30,27,92,86,65,30.28,30.12,29.95,10,5,0,12,6,,0.25,5,Fog-Snow,10
2011-10-30,,,,,,,,,,30.31,30.28,30.23,,,,,,,0.00,,,-1
2011-10-31,,,,,,,,,,30.41,30.37,30.32,,,,,,,0.00,,,-1